Current Conditions
Foggy
Conditions



Pressure
1010.92 (mb) - 29.85 (inHG)
Visibility

0.6 (miles) - 1.0 (km)
   Temperature
11  °C
52°F
11  °C
Dewpoint
100  %
 Humidity
   Wind Speed
0  mph
0  kts
0  km/h
0  m/s
   Wind Direction
Calm
Due North
   Airport Data
EGTK
Location Oxford (Kidlington) Airport 26 mi (41.83 km)
Metar :EGTK 220650Z 00000KT 1500 0400N R19/P2000 FG NSC 11/11 Q1011
Tue 22nd September 07:50 am
   Raw Metar Info
Raw METAR is the most common format in the world for the transmission of observational weather data. It is highly standardized through the International Civil Aviation Organization (ICAO), which allows it to be understood throughout most of the world.
   API Info
Data Provided by
https://www.checkwx.com/weather/EGTK
   © Info
CSS/SVG/PHP scripts were developed by weather34.com for use in the weather34 template © 2015-2020

Guide Info provided by Metar-Wikipedia